Terminal Aerodrome Forecast
Issued by NWS Wilmington, NC

Home | Current Version | Previous Version | Text Only | Print | Product List | Glossary On
Versions: 1 2 3 4 5 6 7 8 9 10 11 12 13 14 15 16 17 18 19 20
000
FTUS42 KILM 011208 CCA
TAFFLO
TAF COR
KFLO 011208Z 0112/0212 VRB03KT P6SM SCT250
     FM011700 19004KT P6SM SCT050 SCT250
     FM012100 21004KT P6SM BKN050
     FM020500 00000KT 4SM BR SCT060 SCT100=

USA.gov is the U.S. government's official web portal to all federal, state and local government web resources and services.